Time;durP1;ratioP1;P1;durP2;ratioP2;P2;SDS_P1;SDS_P2;PMS_P1;PMS_P2;Temp;Humidity;BMP_temperature;BMP_pressure;BME280_temperature;BME280_humidity;BME280_pressure;Samples;Min_cycle;Max_cycle;Signal;HPM_P1;HPM_P2
2023/10/02 00:01:06;;;;;;;3.50;1.60;;;14.80;99.90;;;;;;5075061;28;20436;-82
2023/10/02 00:03:31;;;;;;;4.07;1.77;;;14.80;99.90;;;;;;5074377;28;20505;-82
2023/10/02 00:05:58;;;;;;;4.20;2.57;;;14.80;99.90;;;;;;5074929;28;20449;-82
2023/10/02 00:08:39;;;;;;;3.63;1.67;;;14.90;99.90;;;;;;5074891;28;20441;-82
2023/10/02 00:11:39;;;;;;;8.77;2.70;;;15.60;99.90;;;;;;5074887;28;20436;-82
2023/10/02 00:14:20;;;;;;;5.67;1.63;;;15.10;99.90;;;;;;5074513;28;20914;-82
2023/10/02 00:16:59;;;;;;;4.90;1.50;;;15.10;99.90;;;;;;5074447;28;20425;-82
2023/10/02 00:19:33;;;;;;;5.70;2.10;;;15.10;99.90;;;;;;5074681;28;20440;-83
2023/10/02 00:22:04;;;;;;;9.23;2.90;;;16.00;99.90;;;;;;5074604;28;20544;-82
2023/10/02 00:24:33;;;;;;;3.70;2.57;;;15.30;99.90;;;;;;5074633;28;20432;-82
2023/10/02 00:27:01;;;;;;;3.40;1.80;;;15.30;99.90;;;;;;5074230;28;20466;-82
2023/10/02 00:29:28;;;;;;;13.17;2.67;;;15.30;99.90;;;;;;5074637;28;20444;-82
2023/10/02 00:31:56;;;;;;;3.13;2.00;;;15.30;99.90;;;;;;5074326;28;20465;-82
2023/10/02 00:34:31;;;;;;;4.93;2.03;;;15.30;99.90;;;;;;5074369;28;20441;-82
2023/10/02 00:37:06;;;;;;;8.33;2.57;;;15.30;99.90;;;;;;5074360;28;20432;-82
2023/10/02 00:39:35;;;;;;;8.67;2.43;;;15.40;99.90;;;;;;5074261;28;20452;-82
2023/10/02 00:44:54;;;;;;;3.10;2.00;;;15.40;99.90;;;;;;5073253;28;20404;-82
2023/10/02 00:47:45;;;;;;;4.83;2.03;;;15.40;99.90;;;;;;5073866;28;20940;-82
2023/10/02 00:50:16;;;;;;;5.17;2.17;;;15.30;99.90;;;;;;5074112;28;20512;-82
2023/10/02 00:52:56;;;;;;;6.50;2.20;;;15.30;99.90;;;;;;5073655;28;20547;-82
2023/10/02 00:55:25;;;;;;;5.70;2.47;;;15.60;99.90;;;;;;5073866;28;20905;-82
2023/10/02 00:57:56;;;;;;;5.40;2.27;;;15.30;99.90;;;;;;5073937;28;20437;-82
2023/10/02 01:00:35;;;;;;;7.23;2.30;;;15.30;99.90;;;;;;5073897;28;20480;-82
2023/10/02 01:03:04;;;;;;;3.87;1.73;;;15.30;99.90;;;;;;5073756;28;20488;-82
2023/10/02 01:05:41;;;;;;;4.73;2.53;;;15.30;99.90;;;;;;5073529;28;20894;-82
2023/10/02 01:08:23;;;;;;;5.47;2.07;;;15.20;99.90;;;;;;5073809;28;20503;-82
2023/10/02 01:10:57;;;;;;;7.63;1.80;;;15.20;99.90;;;;;;5073801;28;20430;-82
2023/10/02 01:13:28;;;;;;;7.37;3.13;;;15.10;99.90;;;;;;5073663;28;20465;-82
2023/10/02 01:15:56;;;;;;;7.67;2.60;;;15.20;99.90;;;;;;5073653;28;20425;-82
2023/10/02 01:18:23;;;;;;;6.67;3.30;;;15.20;99.90;;;;;;5073351;28;20441;-82
2023/10/02 01:20:53;;;;;;;4.17;1.70;;;15.20;99.90;;;;;;5073298;28;20429;-82
2023/10/02 01:23:25;;;;;;;5.33;2.77;;;15.20;99.90;;;;;;5073492;28;20499;-82
2023/10/02 01:25:56;;;;;;;7.93;2.50;;;15.20;99.90;;;;;;5073574;28;20532;-82
2023/10/02 01:28:25;;;;;;;3.50;2.30;;;15.20;99.90;;;;;;5073504;28;20444;-81
2023/10/02 01:30:55;;;;;;;4.80;2.70;;;15.20;99.90;;;;;;5073151;28;20486;-83
2023/10/02 01:33:26;;;;;;;4.17;1.43;;;15.30;99.90;;;;;;5073131;28;20552;-83
2023/10/02 01:35:54;;;;;;;3.47;1.77;;;15.20;99.90;;;;;;5073407;28;20421;-82
2023/10/02 01:38:27;;;;;;;4.33;1.70;;;15.20;99.90;;;;;;5073373;28;20448;-83
2023/10/02 01:41:03;;;;;;;9.27;2.93;;;15.20;99.90;;;;;;5073049;28;20486;-82
2023/10/02 01:43:32;;;;;;;8.40;2.10;;;15.20;99.90;;;;;;5072791;28;20484;-82
2023/10/02 01:46:00;;;;;;;9.33;2.57;;;15.20;99.90;;;;;;5073004;28;20444;-82
2023/10/02 01:48:48;;;;;;;12.53;3.10;;;15.20;99.90;;;;;;5073283;28;20527;-82
2023/10/02 01:51:20;;;;;;;2.80;1.70;;;15.20;99.90;;;;;;5073843;28;20475;-82
2023/10/02 01:53:48;;;;;;;6.20;2.20;;;15.20;99.90;;;;;;5072893;28;20544;-83
2023/10/02 01:56:16;;;;;;;9.13;3.00;;;15.30;99.90;;;;;;5076658;28;20455;-82
2023/10/02 01:58:44;;;;;;;5.87;2.00;;;15.20;99.90;;;;;;5079832;28;20460;-82
2023/10/02 02:01:11;;;;;;;7.00;2.17;;;15.20;99.90;;;;;;5079801;28;20445;-82
2023/10/02 02:03:38;;;;;;;8.00;2.63;;;15.30;99.90;;;;;;5079323;28;20997;-82
2023/10/02 02:06:10;;;;;;;9.67;2.60;;;16.00;99.90;;;;;;5079745;28;20445;-82
2023/10/02 02:08:38;;;;;;;4.53;2.53;;;15.30;99.90;;;;;;5079481;28;20898;-82
2023/10/02 02:11:16;;;;;;;4.70;1.90;;;15.30;99.90;;;;;;5079699;28;20513;-82
2023/10/02 02:13:46;;;;;;;3.60;2.77;;;15.30;99.90;;;;;;5079599;28;20452;-82
2023/10/02 02:16:16;;;;;;;4.17;3.03;;;15.30;99.90;;;;;;5079686;28;20443;-82
2023/10/02 02:18:45;;;;;;;5.27;2.50;;;15.20;99.90;;;;;;5079642;28;20447;-82
2023/10/02 02:21:16;;;;;;;9.40;2.23;;;15.20;99.90;;;;;;5079597;28;20455;-82
2023/10/02 02:23:42;;;;;;;7.20;2.70;;;15.20;99.90;;;;;;5079125;28;21001;-82
2023/10/02 02:26:09;;;;;;;7.23;2.83;;;15.20;99.90;;;;;;5079570;28;20449;-82
2023/10/02 02:28:43;;;;;;;6.93;2.50;;;15.10;99.90;;;;;;5079562;28;20440;-82
2023/10/02 02:31:29;;;;;;;3.50;2.10;;;15.00;99.90;;;;;;5079761;28;20440;-82
2023/10/02 02:33:57;;;;;;;3.50;3.03;;;15.10;99.90;;;;;;5079566;28;20829;-83
2023/10/02 02:36:25;;;;;;;3.83;1.80;;;15.00;99.90;;;;;;5079472;28;20452;-82
2023/10/02 02:39:07;;;;;;;3.30;2.70;;;15.00;99.90;;;;;;5079460;28;20502;-83
2023/10/02 02:41:35;;;;;;;4.87;2.43;;;15.00;99.90;;;;;;5079632;28;20486;-82
2023/10/02 02:44:02;;;;;;;3.27;1.93;;;14.90;99.90;;;;;;5078890;28;20492;-82
2023/10/02 02:46:32;;;;;;;8.23;2.70;;;14.80;99.90;;;;;;5079399;28;20515;-82
2023/10/02 02:49:00;;;;;;;3.67;2.50;;;14.80;99.90;;;;;;5080215;28;20447;-82
2023/10/02 02:51:27;;;;;;;7.50;3.33;;;14.70;99.90;;;;;;5079542;28;20448;-83
2023/10/02 02:53:55;;;;;;;5.60;2.30;;;14.70;99.90;;;;;;5079469;28;20806;-82
2023/10/02 02:56:23;;;;;;;2.97;1.77;;;14.70;99.90;;;;;;5079503;28;20786;-82
2023/10/02 02:58:52;;;;;;;5.53;2.73;;;14.60;99.90;;;;;;5079883;28;20444;-83
2023/10/02 03:01:22;;;;;;;7.30;2.37;;;14.60;99.90;;;;;;5079402;28;20551;-83
2023/10/02 03:03:50;;;;;;;4.40;2.47;;;14.60;99.90;;;;;;5078780;28;20859;-82
2023/10/02 03:06:22;;;;;;;6.17;2.23;;;14.50;99.90;;;;;;5079195;28;20449;-84
2023/10/02 03:08:51;;;;;;;6.00;2.40;;;14.50;99.90;;;;;;5075765;28;20448;-83
2023/10/02 03:11:19;;;;;;;4.50;2.00;;;14.50;99.90;;;;;;5075890;28;20464;-83
2023/10/02 03:13:47;;;;;;;7.30;2.27;;;14.40;99.90;;;;;;5075939;28;20552;-83
2023/10/02 03:16:17;;;;;;;9.60;2.20;;;14.40;99.90;;;;;;5075938;28;20495;-83
2023/10/02 03:18:44;;;;;;;3.07;1.50;;;14.40;99.90;;;;;;5075854;28;20445;-83
2023/10/02 03:21:21;;;;;;;10.67;2.87;;;14.40;99.90;;;;;;5075834;28;20453;-83
2023/10/02 03:23:49;;;;;;;7.60;3.17;;;14.40;99.90;;;;;;5075719;28;20484;-83
2023/10/02 03:26:37;;;;;;;10.77;2.10;;;14.30;99.90;;;;;;5075427;28;20950;-83
2023/10/02 03:29:05;;;;;;;4.87;2.40;;;14.30;99.90;;;;;;5075781;28;20520;-83
2023/10/02 03:31:43;;;;;;;4.60;2.30;;;14.20;99.90;;;;;;5075553;28;20452;-83
2023/10/02 03:34:28;;;;;;;3.43;1.70;;;14.20;99.90;;;;;;5075666;28;20432;-84
2023/10/02 03:36:59;;;;;;;4.47;2.57;;;14.10;99.90;;;;;;5075568;28;20429;-83
2023/10/02 03:42:14;;;;;;;3.47;2.10;;;14.10;99.90;;;;;;5075126;28;20574;-83
2023/10/02 03:44:42;;;;;;;3.33;2.20;;;14.10;99.90;;;;;;5075335;28;20504;-83
2023/10/02 03:47:12;;;;;;;4.90;2.80;;;14.10;99.90;;;;;;5075323;28;20480;-83
2023/10/02 03:49:43;;;;;;;4.97;1.70;;;14.10;99.90;;;;;;5075325;28;20449;-83
2023/10/02 03:52:13;;;;;;;3.80;2.20;;;14.00;99.90;;;;;;5075232;28;20465;-83
2023/10/02 03:54:43;;;;;;;6.10;2.27;;;14.10;99.90;;;;;;5075206;28;20794;-83
2023/10/02 03:57:37;;;;;;;6.53;2.30;;;14.10;99.90;;;;;;5075211;28;20429;-83
2023/10/02 04:00:09;;;;;;;4.30;2.47;;;14.00;99.90;;;;;;5074682;28;20437;-83
2023/10/02 04:02:36;;;;;;;3.60;1.90;;;13.90;99.90;;;;;;5075422;28;20469;-83
2023/10/02 04:05:04;;;;;;;4.20;1.60;;;14.00;99.90;;;;;;5074926;28;20576;-83
2023/10/02 04:07:32;;;;;;;3.33;2.10;;;14.00;99.90;;;;;;5074884;28;20815;-83
2023/10/02 04:10:00;;;;;;;8.27;2.50;;;14.00;99.90;;;;;;5074937;28;20441;-82
2023/10/02 04:12:26;;;;;;;3.47;2.20;;;14.00;99.90;;;;;;5074723;28;20823;-83
2023/10/02 04:14:54;;;;;;;5.00;2.40;;;14.00;99.90;;;;;;5074813;28;20440;-83
2023/10/02 04:17:21;;;;;;;6.70;3.07;;;14.00;99.90;;;;;;5074752;28;20456;-83
2023/10/02 04:19:49;;;;;;;2.83;1.90;;;14.00;99.90;;;;;;5074585;28;20471;-83
2023/10/02 04:22:19;;;;;;;3.93;2.17;;;14.00;99.90;;;;;;5074817;28;20472;-83
2023/10/02 04:25:03;;;;;;;6.70;2.97;;;14.00;99.90;;;;;;5074718;28;20515;-83
2023/10/02 04:28:00;;;;;;;4.53;2.50;;;14.00;99.90;;;;;;5074308;28;20836;-83
2023/10/02 04:30:24;;;;;;;2.90;1.97;;;14.00;99.90;;;;;;5074028;28;20444;-83
2023/10/02 04:32:51;;;;;;;7.00;2.00;;;14.00;99.90;;;;;;5074081;28;20888;-83
2023/10/02 04:38:07;;;;;;;8.40;2.20;;;14.00;99.90;;;;;;5074170;28;20415;-83
2023/10/02 04:40:38;;;;;;;3.40;1.70;;;14.10;99.90;;;;;;5074279;28;20439;-83
2023/10/02 04:43:23;;;;;;;9.27;2.93;;;14.00;99.90;;;;;;5074006;28;20849;-83
2023/10/02 04:45:52;;;;;;;3.80;1.53;;;14.00;99.90;;;;;;5074346;28;20433;-83
2023/10/02 04:48:25;;;;;;;1.87;1.40;;;13.90;99.90;;;;;;5073845;28;20996;-83
2023/10/02 04:50:53;;;;;;;8.10;2.40;;;13.90;99.90;;;;;;5074093;28;20467;-83
2023/10/02 04:53:22;;;;;;;5.97;2.37;;;13.80;99.90;;;;;;5073973;28;20468;-83
2023/10/02 04:56:07;;;;;;;6.73;2.10;;;13.80;99.90;;;;;;5073877;28;20548;-83
2023/10/02 04:58:39;;;;;;;7.70;3.17;;;13.70;99.90;;;;;;5074031;28;20645;-83
2023/10/02 05:03:52;;;;;;;4.67;2.00;;;13.60;99.90;;;;;;5073529;28;20549;-83
2023/10/02 05:06:39;;;;;;;6.80;2.00;;;13.60;99.90;;;;;;5073834;28;20466;-83
2023/10/02 05:09:25;;;;;;;4.90;2.70;;;13.60;99.90;;;;;;5073557;28;20441;-83
2023/10/02 05:11:55;;;;;;;8.23;2.23;;;13.60;99.90;;;;;;5073788;28;20473;-83
2023/10/02 05:14:32;;;;;;;9.83;2.70;;;13.60;99.90;;;;;;5073814;28;20451;-83
2023/10/02 05:17:18;;;;;;;6.60;2.70;;;13.60;99.90;;;;;;5073851;28;20443;-83
2023/10/02 05:20:00;;;;;;;5.07;2.73;;;13.70;99.90;;;;;;5073661;28;20452;-83
2023/10/02 05:22:28;;;;;;;3.80;1.33;;;13.70;99.90;;;;;;5073472;28;20460;-83
2023/10/02 05:24:58;;;;;;;6.40;2.20;;;13.70;99.90;;;;;;5073926;28;20563;-83
2023/10/02 05:27:30;;;;;;;7.43;3.03;;;13.70;99.90;;;;;;5073540;28;20434;-82
2023/10/02 05:29:59;;;;;;;3.63;1.80;;;13.70;99.90;;;;;;5073200;28;20435;-83
2023/10/02 05:32:31;;;;;;;5.40;1.33;;;13.70;99.90;;;;;;5073204;28;20460;-83
2023/10/02 05:35:06;;;;;;;5.67;3.23;;;13.60;99.90;;;;;;5073296;28;20520;-83
2023/10/02 05:37:39;;;;;;;4.00;2.03;;;13.60;99.90;;;;;;5073698;28;20469;-83
2023/10/02 05:43:18;;;;;;;9.00;2.03;;;13.60;99.90;;;;;;5110958;27;20533;-83
2023/10/02 05:45:53;;;;;;;6.50;2.50;;;13.60;99.90;;;;;;5111111;28;20750;-83
2023/10/02 05:48:31;;;;;;;3.90;1.70;;;13.70;99.90;;;;;;5111114;28;20777;-82
2023/10/02 05:50:59;;;;;;;4.63;2.50;;;13.60;99.90;;;;;;5111197;28;20437;-82
2023/10/02 05:53:29;;;;;;;3.93;2.27;;;13.80;99.90;;;;;;5111018;28;20459;-82
2023/10/02 05:56:06;;;;;;;6.50;1.97;;;13.70;99.90;;;;;;5112100;28;20474;-83
2023/10/02 05:58:35;;;;;;;2.17;1.47;;;13.70;99.90;;;;;;5110922;28;20476;-82
2023/10/02 06:01:04;;;;;;;3.87;2.03;;;13.80;99.90;;;;;;5111716;28;20497;-83
2023/10/02 06:03:34;;;;;;;5.20;2.53;;;13.80;99.90;;;;;;5110432;28;20979;-82
2023/10/02 06:06:15;;;;;;;3.20;2.23;;;13.90;99.90;;;;;;5110862;28;20467;-82
2023/10/02 06:08:43;;;;;;;6.23;2.57;;;13.90;99.90;;;;;;5110503;28;20467;-82
2023/10/02 06:11:25;;;;;;;5.17;2.40;;;14.00;99.90;;;;;;5110356;28;20447;-83
2023/10/02 06:13:55;;;;;;;11.10;2.73;;;14.20;99.90;;;;;;5110628;28;20467;-82
2023/10/02 06:16:24;;;;;;;6.03;2.37;;;14.20;99.90;;;;;;5110374;28;20427;-82
2023/10/02 06:19:00;;;;;;;3.53;1.77;;;14.30;99.90;;;;;;5110549;28;20441;-83
2023/10/02 06:21:29;;;;;;;3.97;2.33;;;14.30;99.90;;;;;;5110183;28;20983;-82
2023/10/02 06:23:56;;;;;;;6.87;3.63;;;14.30;99.90;;;;;;5110436;28;20447;-83
2023/10/02 06:26:26;;;;;;;6.27;2.60;;;14.40;99.90;;;;;;5110435;28;20443;-82
2023/10/02 06:29:13;;;;;;;4.50;2.47;;;14.40;99.90;;;;;;5110399;28;20451;-82
2023/10/02 06:31:42;;;;;;;7.57;2.07;;;14.40;99.90;;;;;;5110265;28;20506;-82
2023/10/02 06:34:11;;;;;;;3.83;2.20;;;14.40;99.90;;;;;;5110250;28;20454;-82
2023/10/02 06:36:47;;;;;;;7.10;2.60;;;14.40;99.90;;;;;;5110816;28;20444;-82
2023/10/02 06:39:17;;;;;;;5.60;2.63;;;14.40;99.90;;;;;;5110244;28;20435;-82
2023/10/02 06:41:45;;;;;;;4.33;2.30;;;14.40;99.90;;;;;;5109646;28;20483;-82
2023/10/02 06:44:16;;;;;;;5.70;2.33;;;14.50;99.90;;;;;;5110109;28;20447;-82
2023/10/02 06:46:53;;;;;;;5.57;2.13;;;14.50;99.90;;;;;;5110311;28;20432;-82
2023/10/02 06:49:20;;;;;;;6.63;2.60;;;14.60;99.90;;;;;;5109990;28;20428;-82
2023/10/02 06:51:49;;;;;;;8.73;3.23;;;14.70;99.90;;;;;;5109880;28;20488;-82
2023/10/02 06:54:19;;;;;;;3.33;2.07;;;14.90;99.90;;;;;;5097438;28;20432;-83
2023/10/02 06:56:45;;;;;;;4.70;2.63;;;14.90;99.90;;;;;;5096292;28;20489;-82
2023/10/02 06:59:14;;;;;;;8.03;2.80;;;15.00;99.90;;;;;;5096211;28;20447;-82
2023/10/02 07:02:01;;;;;;;9.60;2.70;;;15.00;99.90;;;;;;5096054;28;20478;-82
2023/10/02 07:04:30;;;;;;;7.17;2.30;;;15.60;99.90;;;;;;5095842;28;20809;-82
2023/10/02 07:07:03;;;;;;;5.73;2.47;;;15.10;99.90;;;;;;5095785;28;20448;-82
2023/10/02 07:09:34;;;;;;;8.57;2.97;;;15.20;99.90;;;;;;5096420;28;20535;-82
2023/10/02 07:12:09;;;;;;;9.00;2.53;;;15.20;99.90;;;;;;5095658;28;20456;-82
2023/10/02 07:14:38;;;;;;;3.83;2.13;;;15.40;99.90;;;;;;5096025;28;20435;-82
2023/10/02 07:17:16;;;;;;;4.23;2.57;;;15.50;99.90;;;;;;5095498;28;20448;-82
2023/10/02 07:19:48;;;;;;;5.77;2.60;;;15.60;99.90;;;;;;5095777;28;20424;-83
2023/10/02 07:22:17;;;;;;;6.47;2.77;;;15.70;99.90;;;;;;5095532;28;20492;-82
2023/10/02 07:24:46;;;;;;;5.83;2.57;;;15.80;99.90;;;;;;5095268;28;20920;-83
2023/10/02 07:27:23;;;;;;;8.57;2.97;;;15.80;99.90;;;;;;5095540;28;20542;-82
2023/10/02 07:29:53;;;;;;;4.20;1.70;;;15.80;99.90;;;;;;5095551;28;20432;-82
2023/10/02 07:32:21;;;;;;;6.17;2.60;;;15.80;99.90;;;;;;5095293;28;20472;-82
2023/10/02 07:34:50;;;;;;;8.10;3.10;;;15.90;99.90;;;;;;5095465;28;20452;-82
2023/10/02 07:37:21;;;;;;;5.37;2.07;;;15.90;99.90;;;;;;5095404;28;20535;-82
2023/10/02 07:39:52;;;;;;;8.17;3.40;;;16.00;99.90;;;;;;5095909;28;20937;-82
2023/10/02 07:42:21;;;;;;;8.50;2.97;;;16.10;99.90;;;;;;5096028;28;20488;-82
2023/10/02 07:44:48;;;;;;;11.83;3.30;;;16.10;99.90;;;;;;5095286;28;20458;-82
2023/10/02 07:47:20;;;;;;;5.83;2.53;;;16.20;99.90;;;;;;5095275;28;20450;-82
2023/10/02 07:49:48;;;;;;;8.07;2.73;;;16.30;99.90;;;;;;5095837;28;20784;-82
2023/10/02 07:52:26;;;;;;;8.43;3.97;;;16.40;99.90;;;;;;5095075;28;20871;-82
2023/10/02 07:54:58;;;;;;;4.60;2.20;;;16.50;99.90;;;;;;5094875;28;20465;-82
2023/10/02 07:57:30;;;;;;;6.23;3.37;;;16.70;99.90;;;;;;5095132;28;20432;-82
2023/10/02 07:59:58;;;;;;;10.50;3.70;;;16.80;99.90;;;;;;5094939;28;20951;-82
2023/10/02 08:02:30;;;;;;;6.33;2.43;;;16.90;99.90;;;;;;5094839;28;20574;-82
2023/10/02 08:04:59;;;;;;;7.90;3.73;;;17.10;99.90;;;;;;5093751;28;20435;-82
2023/10/02 08:07:26;;;;;;;9.63;2.70;;;17.20;99.90;;;;;;5094591;28;20452;-83
2023/10/02 08:09:55;;;;;;;4.30;2.97;;;17.40;99.90;;;;;;5094847;28;20444;-82
2023/10/02 08:12:34;;;;;;;11.83;3.77;;;17.60;99.90;;;;;;5094432;28;20464;-82
2023/10/02 08:15:05;;;;;;;7.33;3.70;;;17.80;99.90;;;;;;5094855;28;20489;-82
2023/10/02 08:20:24;;;;;;;13.27;2.90;;;18.10;99.90;;;;;;5094464;28;20460;-82
2023/10/02 08:22:52;;;;;;;7.97;3.37;;;18.30;99.90;;;;;;5094508;28;20491;-82
2023/10/02 08:25:23;;;;;;;6.07;2.80;;;18.30;99.90;;;;;;5094635;28;20527;-82
2023/10/02 08:27:57;;;;;;;17.50;4.27;;;18.40;99.90;;;;;;5094158;28;20925;-82
2023/10/02 08:30:29;;;;;;;7.77;2.87;;;18.50;99.90;;;;;;5094517;28;20467;-82
2023/10/02 08:33:05;;;;;;;6.20;2.40;;;18.70;99.90;;;;;;5094301;28;20476;-83
2023/10/02 08:35:32;;;;;;;6.67;2.23;;;18.90;99.90;;;;;;5094430;28;20432;-85
2023/10/02 08:38:00;;;;;;;6.83;3.77;;;19.30;99.90;;;;;;5094340;28;20440;-82
2023/10/02 08:40:27;;;;;;;5.03;2.87;;;19.40;99.90;;;;;;5094223;28;20487;-82
2023/10/02 08:42:56;;;;;;;8.23;3.03;;;19.60;99.90;;;;;;5093549;28;20496;-82
2023/10/02 08:45:24;;;;;;;8.00;3.43;;;19.60;99.90;;;;;;5094161;28;20440;-82
2023/10/02 08:47:52;;;;;;;6.40;3.30;;;19.70;99.90;;;;;;5094108;28;20440;-82
2023/10/02 08:50:20;;;;;;;13.50;2.80;;;19.80;99.90;;;;;;5094179;28;20773;-82
2023/10/02 08:52:50;;;;;;;11.60;4.27;;;20.00;99.90;;;;;;5094055;28;20463;-82
2023/10/02 08:55:35;;;;;;;16.83;3.90;;;20.20;99.90;;;;;;5094279;28;20479;-82
2023/10/02 08:58:15;;;;;;;6.43;3.07;;;20.60;99.90;;;;;;5094043;28;20815;-82
2023/10/02 09:01:17;;;;;;;10.93;3.17;;;21.00;99.90;;;;;;5093665;28;20431;-82
2023/10/02 09:03:49;;;;;;;10.00;3.70;;;21.70;99.90;;;;;;5093213;28;20486;-82
2023/10/02 09:06:25;;;;;;;4.87;3.00;;;22.40;99.90;;;;;;5093882;28;20514;-82
2023/10/02 09:11:37;;;;;;;11.80;4.17;;;23.90;99.90;;;;;;5093466;28;20411;-82
2023/10/02 09:14:16;;;;;;;8.30;3.10;;;24.40;99.90;;;;;;5093446;28;20451;-82
2023/10/02 09:16:45;;;;;;;8.27;2.70;;;25.20;99.90;;;;;;5093123;28;20991;-82
2023/10/02 09:22:06;;;;;;;9.57;2.92;;;26.90;99.90;;;;;;5093177;28;20235;-82
2023/10/02 09:24:34;;;;;;;10.43;3.08;;;27.00;99.90;;;;;;5093302;28;20185;-82
2023/10/02 09:27:20;;;;;;;8.20;3.22;;;27.10;99.90;;;;;;5093571;28;20209;-82
2023/10/02 09:29:48;;;;;;;11.82;3.60;;;26.90;99.90;;;;;;5093216;28;20285;-82
2023/10/02 09:32:24;;;;;;;8.30;3.85;;;27.00;99.90;;;;;;5093434;28;20694;-83
2023/10/02 09:37:36;;;;;;;5.18;3.50;;;27.20;99.90;;;;;;5090450;28;20279;-82
2023/10/02 09:40:14;;;;;;;7.45;3.78;;;27.10;98.90;;;;;;5093052;28;20620;-83
2023/10/02 09:42:45;;;;;;;8.27;3.85;;;27.00;98.40;;;;;;5092780;28;20239;-82
2023/10/02 09:45:16;;;;;;;4.10;2.30;;;26.80;98.60;;;;;;5093342;28;20185;-82
2023/10/02 09:47:43;;;;;;;7.85;2.58;;;26.50;98.90;;;;;;5093041;28;20696;-82
2023/10/02 09:50:23;;;;;;;8.70;3.30;;;26.50;98.80;;;;;;5093246;28;20258;-83
2023/10/02 09:52:58;;;;;;;16.33;5.55;;;26.10;98.70;;;;;;5093232;28;20346;-82
2023/10/02 09:55:40;;;;;;;7.32;3.70;;;26.10;99.20;;;;;;5093265;28;20184;-82
2023/10/02 09:58:26;;;;;;;8.82;3.60;;;25.80;99.60;;;;;;5093292;28;20556;-83
2023/10/02 10:01:33;;;;;;;12.15;4.22;;;25.50;99.20;;;;;;5095041;28;20186;-82
2023/10/02 10:04:00;;;;;;;5.28;2.97;;;25.60;99.40;;;;;;5093626;28;20213;-83
2023/10/02 10:06:29;;;;;;;15.15;4.45;;;25.70;98.60;;;;;;5092835;28;20194;-82
2023/10/02 10:09:27;;;;;;;10.40;3.67;;;25.60;98.50;;;;;;5093136;28;20270;-83
2023/10/02 10:14:40;;;;;;;9.95;3.67;;;25.40;98.50;;;;;;5093431;28;20223;-83
2023/10/02 10:17:13;;;;;;;8.85;3.55;;;25.50;98.90;;;;;;5093785;28;20215;-83
2023/10/02 10:19:41;;;;;;;8.75;3.22;;;25.30;97.80;;;;;;5093115;28;20189;-83
2023/10/02 10:22:34;;;;;;;8.10;4.25;;;25.60;99.00;;;;;;5092551;28;20317;-83
2023/10/02 10:25:32;;;;;;;10.98;4.13;;;25.80;98.80;;;;;;5093612;28;20190;-83
2023/10/02 10:27:59;;;;;;;8.45;4.22;;;26.30;98.10;;;;;;5093714;28;20194;-83
2023/10/02 10:30:43;;;;;;;12.13;4.57;;;26.80;95.80;;;;;;5096425;28;20201;-83
2023/10/02 10:33:35;;;;;;;12.88;5.57;;;27.40;95.30;;;;;;5096426;28;20225;-82
2023/10/02 10:36:13;;;;;;;9.23;3.90;;;27.90;92.30;;;;;;5096710;28;20194;-83
2023/10/02 10:38:44;;;;;;;12.48;4.90;;;28.70;91.00;;;;;;5096689;28;20188;-84
2023/10/02 10:41:30;;;;;;;14.00;4.57;;;30.20;88.10;;;;;;5096107;28;20248;-83
2023/10/02 10:43:57;;;;;;;14.23;5.15;;;31.80;83.70;;;;;;5096436;28;20227;-83
2023/10/02 10:46:27;;;;;;;9.02;4.10;;;32.20;77.90;;;;;;5096138;28;20207;-83
2023/10/02 10:49:07;;;;;;;13.98;5.32;;;32.50;75.30;;;;;;5097044;28;20209;-83
2023/10/02 10:51:34;;;;;;;10.43;3.90;;;32.10;73.10;;;;;;5096296;28;20194;-83
2023/10/02 10:54:13;;;;;;;10.45;4.43;;;31.30;72.20;;;;;;5095900;28;20211;-83
2023/10/02 10:56:45;;;;;;;11.43;4.28;;;30.40;74.20;;;;;;5096095;28;20706;-84
2023/10/02 10:59:12;;;;;;;9.30;4.38;;;29.50;76.00;;;;;;5096142;28;20530;-82
2023/10/02 11:01:48;;;;;;;12.70;5.13;;;28.60;77.30;;;;;;5095784;28;20202;-82
2023/10/02 11:04:26;;;;;;;9.25;4.82;;;27.70;76.40;;;;;;5096117;28;20217;-82
2023/10/02 11:06:54;;;;;;;10.10;4.47;;;27.10;79.60;;;;;;5096152;28;20189;-82
2023/10/02 11:09:24;;;;;;;8.50;4.03;;;26.70;81.50;;;;;;5096058;28;20192;-81
2023/10/02 11:11:54;;;;;;;13.65;4.60;;;26.40;83.30;;;;;;5095944;28;20235;-82
2023/10/02 11:14:35;;;;;;;13.68;5.53;;;26.30;84.40;;;;;;5095977;28;20193;-82
2023/10/02 11:17:04;;;;;;;16.70;6.63;;;26.10;86.40;;;;;;5095946;28;20193;-82
2023/10/02 11:19:43;;;;;;;11.02;4.47;;;26.00;86.20;;;;;;5095871;28;20203;-82
2023/10/02 11:22:18;;;;;;;13.48;5.20;;;25.80;83.40;;;;;;5095781;28;20225;-82
2023/10/02 11:24:48;;;;;;;15.50;5.60;;;25.80;83.80;;;;;;5095796;28;20558;-82
2023/10/02 11:27:16;;;;;;;15.27;4.93;;;25.80;83.30;;;;;;5095409;28;20205;-82
2023/10/02 11:29:45;;;;;;;15.02;6.05;;;25.60;82.50;;;;;;5095376;28;20680;-82
2023/10/02 11:32:23;;;;;;;18.88;5.43;;;25.60;81.10;;;;;;5095515;28;20228;-82
2023/10/02 11:34:51;;;;;;;17.25;5.60;;;25.70;80.70;;;;;;5095255;28;20227;-82
2023/10/02 11:37:19;;;;;;;14.75;5.47;;;25.50;78.90;;;;;;5095497;28;20205;-82
2023/10/02 11:39:50;;;;;;;13.52;4.53;;;25.60;78.60;;;;;;5095148;28;20227;-82
2023/10/02 11:42:19;;;;;;;14.63;4.88;;;25.50;81.60;;;;;;5094879;28;20233;-82
2023/10/02 11:44:46;;;;;;;11.57;4.78;;;25.40;79.80;;;;;;5094976;28;20846;-84
2023/10/02 11:47:13;;;;;;;10.73;4.32;;;25.30;79.20;;;;;;5095335;28;20201;-82
2023/10/02 11:49:40;;;;;;;10.07;4.93;;;25.20;79.50;;;;;;5095352;28;20201;-82
2023/10/02 11:52:07;;;;;;;17.50;6.07;;;25.30;80.60;;;;;;5095111;28;20591;-82
2023/10/02 11:54:36;;;;;;;14.70;6.03;;;25.60;75.50;;;;;;5095147;28;20197;-82
2023/10/02 11:57:08;;;;;;;10.98;5.07;;;25.30;76.30;;;;;;5095569;28;20208;-82
2023/10/02 11:59:37;;;;;;;16.63;5.75;;;25.20;77.10;;;;;;5095861;28;20181;-81
2023/10/02 12:02:04;;;;;;;12.13;5.22;;;25.20;80.60;;;;;;5094972;28;20220;-81
2023/10/02 12:04:33;;;;;;;16.27;5.40;;;25.10;83.90;;;;;;5094905;28;20232;-81
2023/10/02 12:07:00;;;;;;;10.27;4.38;;;25.20;85.00;;;;;;5094880;28;20218;-81
2023/10/02 12:09:27;;;;;;;12.07;4.20;;;25.00;84.80;;;;;;5094838;28;20201;-81
2023/10/02 12:11:55;;;;;;;11.23;5.10;;;25.10;87.60;;;;;;5094816;28;20228;-81
2023/10/02 12:14:23;;;;;;;14.73;5.03;;;25.00;87.90;;;;;;5095539;28;20240;-82
2023/10/02 12:16:52;;;;;;;11.75;4.47;;;24.80;88.60;;;;;;5094721;28;20197;-81
2023/10/02 12:19:19;;;;;;;13.23;4.45;;;24.90;87.90;;;;;;5094757;28;20255;-81
2023/10/02 12:21:47;;;;;;;13.18;4.05;;;24.80;88.90;;;;;;5094608;28;20197;-82
2023/10/02 12:24:14;;;;;;;9.15;3.70;;;24.70;88.30;;;;;;5094617;28;20222;-82
2023/10/02 12:26:42;;;;;;;10.93;4.03;;;24.60;88.00;;;;;;5094614;28;20206;-82
2023/10/02 12:29:10;;;;;;;13.63;4.40;;;24.60;86.90;;;;;;5094221;28;20197;-81
2023/10/02 12:31:37;;;;;;;17.58;4.50;;;24.60;87.40;;;;;;5094376;28;20201;-82
2023/10/02 12:34:06;;;;;;;11.02;5.30;;;24.70;88.60;;;;;;5094452;28;20202;-82
2023/10/02 12:36:33;;;;;;;9.57;4.20;;;24.50;87.70;;;;;;5094132;28;20195;-81
2023/10/02 12:39:00;;;;;;;8.52;4.10;;;24.40;87.20;;;;;;5094346;28;20231;-81
2023/10/02 12:41:30;;;;;;;11.13;4.80;;;24.30;89.70;;;;;;5093979;28;20229;-82
2023/10/02 12:43:58;;;;;;;12.40;4.60;;;24.30;90.70;;;;;;5094199;28;20227;-82
2023/10/02 12:46:26;;;;;;;9.02;4.15;;;24.20;90.50;;;;;;5094239;28;20185;-82
2023/10/02 12:48:55;;;;;;;14.75;4.75;;;24.30;89.00;;;;;;5094142;28;20185;-82
2023/10/02 12:51:23;;;;;;;10.23;4.03;;;24.30;90.20;;;;;;5093713;28;20209;-82
2023/10/02 12:53:51;;;;;;;10.43;5.22;;;24.30;90.00;;;;;;5093998;28;20223;-81
2023/10/02 12:56:20;;;;;;;13.70;5.18;;;24.30;89.40;;;;;;5093792;28;20188;-82
2023/10/02 12:58:49;;;;;;;10.85;5.20;;;24.20;89.00;;;;;;5094102;28;20209;-82
2023/10/02 13:01:17;;;;;;;11.13;3.97;;;24.30;89.20;;;;;;5093902;28;20193;-82
2023/10/02 13:03:43;;;;;;;11.70;3.92;;;24.30;89.00;;;;;;5093728;28;20233;-82
2023/10/02 13:06:12;;;;;;;12.48;4.35;;;24.30;90.20;;;;;;5093874;28;20209;-83
2023/10/02 13:08:42;;;;;;;7.97;3.53;;;24.30;90.30;;;;;;5093857;28;20197;-82
2023/10/02 13:11:13;;;;;;;9.63;2.88;;;24.40;89.20;;;;;;5093767;28;20201;-82
2023/10/02 13:13:43;;;;;;;5.47;2.70;;;24.40;88.50;;;;;;5093734;28;20705;-82
2023/10/02 13:16:11;;;;;;;7.78;3.17;;;24.60;88.60;;;;;;5094203;28;20214;-82
2023/10/02 13:18:39;;;;;;;7.95;2.33;;;24.50;89.90;;;;;;5093436;28;20296;-82
2023/10/02 13:21:08;;;;;;;7.50;3.92;;;24.30;91.40;;;;;;5093397;28;20192;-82
2023/10/02 13:23:35;;;;;;;4.28;2.35;;;24.20;91.50;;;;;;5093230;28;20278;-82
2023/10/02 13:26:06;;;;;;;5.60;2.22;;;24.10;91.60;;;;;;5093271;28;20209;-82
2023/10/02 13:28:34;;;;;;;7.28;3.20;;;24.10;90.30;;;;;;5093254;28;20250;-81
2023/10/02 13:31:09;;;;;;;6.38;2.47;;;24.10;90.20;;;;;;5093228;28;20204;-81
2023/10/02 13:33:35;;;;;;;5.85;2.50;;;24.10;90.70;;;;;;5093498;28;20217;-81
2023/10/02 13:36:03;;;;;;;5.68;2.78;;;24.00;90.70;;;;;;5093195;28;20546;-81
2023/10/02 13:38:31;;;;;;;7.88;3.00;;;24.00;90.80;;;;;;5093460;28;20208;-81